createdAt,value
2018-08-16T00:01:06.840Z,89.94
2018-08-16T00:03:38.872Z,89.68
2018-08-16T00:06:10.902Z,89.61
2018-08-16T00:08:43.230Z,90.31
2018-08-16T00:11:15.258Z,89.78
2018-08-16T00:13:47.309Z,89.92
2018-08-16T00:16:19.326Z,90.76
2018-08-16T00:18:51.530Z,91.48
2018-08-16T00:21:23.575Z,91.50
2018-08-16T00:23:55.562Z,91.39
2018-08-16T00:26:27.554Z,91.41
2018-08-16T00:28:59.589Z,91.50
2018-08-16T00:31:31.607Z,90.85
2018-08-16T00:34:03.627Z,90.54
2018-08-16T00:36:35.647Z,91.06
2018-08-16T00:39:08.514Z,90.99
2018-08-16T00:41:40.506Z,91.53
2018-08-16T00:44:12.508Z,91.87
2018-08-16T00:46:44.519Z,92.17
2018-08-16T00:49:16.561Z,91.99
2018-08-16T00:51:48.595Z,93.29
2018-08-16T00:54:20.639Z,93.25
2018-08-16T00:56:52.648Z,93.42
2018-08-16T00:59:24.670Z,93.21
2018-08-16T01:01:56.674Z,93.72
2018-08-16T01:04:28.710Z,94.65
2018-08-16T01:07:00.742Z,95.48
2018-08-16T01:09:32.751Z,95.48
2018-08-16T01:12:04.754Z,95.47
2018-08-16T01:14:36.741Z,96.41
2018-08-16T01:17:08.983Z,95.73
2018-08-16T01:19:47.448Z,96.11
2018-08-16T01:22:19.497Z,96.01
2018-08-16T01:24:51.496Z,96.37
2018-08-16T01:27:23.511Z,96.77
2018-08-16T01:29:55.468Z,96.82
2018-08-16T01:32:27.445Z,97.34
2018-08-16T01:34:59.433Z,97.68
2018-08-16T01:37:31.407Z,98.44
2018-08-16T01:40:03.982Z,98.16
2018-08-16T01:42:36.770Z,98.21
2018-08-16T01:45:09.448Z,98.08
2018-08-16T01:47:41.427Z,97.85
2018-08-16T01:50:13.403Z,97.28
2018-08-16T01:52:45.374Z,98.10
2018-08-16T01:55:17.363Z,98.59
2018-08-16T01:57:49.323Z,99.08
2018-08-16T02:00:21.306Z,99.08
2018-08-16T02:02:53.348Z,98.97
2018-08-16T02:05:25.295Z,98.85
2018-08-16T02:07:57.309Z,98.85
2018-08-16T02:10:29.314Z,98.76
2018-08-16T02:13:01.287Z,100.00
2018-08-16T02:15:33.259Z,99.56
2018-08-16T02:18:05.975Z,99.91
2018-08-16T02:20:37.942Z,100.00
2018-08-16T02:23:09.953Z,100.00
2018-08-16T02:25:41.950Z,100.00
2018-08-16T02:28:13.954Z,100.00
2018-08-16T02:30:50.566Z,100.00
2018-08-16T02:33:22.555Z,100.00
2018-08-16T02:35:54.571Z,100.00
2018-08-16T02:38:26.563Z,100.00
2018-08-16T02:40:58.567Z,100.00
2018-08-16T02:43:30.574Z,100.00
2018-08-16T02:46:02.571Z,100.00
2018-08-16T02:48:34.559Z,100.00
2018-08-16T02:51:06.562Z,100.00
2018-08-16T02:53:38.534Z,100.00
2018-08-16T02:56:10.554Z,100.00
2018-08-16T02:58:42.576Z,99.68
2018-08-16T03:01:14.582Z,99.55
2018-08-16T03:03:46.568Z,99.68
2018-08-16T03:06:18.571Z,98.66
2018-08-16T03:08:50.558Z,98.78
2018-08-16T03:11:22.555Z,98.33
2018-08-16T03:14:02.164Z,98.33
2018-08-16T03:16:34.152Z,98.88
2018-08-16T03:19:06.178Z,99.62
2018-08-16T03:21:38.181Z,99.66
2018-08-16T03:24:10.151Z,100.00
2018-08-16T03:26:42.159Z,100.00
2018-08-16T03:29:14.192Z,100.00
2018-08-16T03:31:46.159Z,100.00
2018-08-16T03:34:18.160Z,100.00
2018-08-16T03:36:50.138Z,100.00
2018-08-16T03:39:22.088Z,100.00
2018-08-16T03:41:54.050Z,100.00
2018-08-16T03:44:26.054Z,100.00
2018-08-16T03:46:58.116Z,100.00
2018-08-16T03:49:30.094Z,100.00
2018-08-16T03:52:02.070Z,100.00
2018-08-16T03:54:34.074Z,100.00
2018-08-16T03:57:06.026Z,100.00
2018-08-16T03:59:38.011Z,100.00
2018-08-16T04:02:09.986Z,100.00
2018-08-16T04:04:42.013Z,100.00
2018-08-16T04:07:13.978Z,100.00
2018-08-16T04:09:45.942Z,100.00
2018-08-16T04:12:17.904Z,100.00
2018-08-16T04:14:49.859Z,100.00
2018-08-16T04:17:26.878Z,100.00
2018-08-16T04:19:58.863Z,100.00
2018-08-16T04:22:30.858Z,100.00
2018-08-16T04:25:03.303Z,100.00
2018-08-16T04:27:35.281Z,100.00
2018-08-16T04:30:07.314Z,100.00
2018-08-16T04:32:39.295Z,100.00
2018-08-16T04:35:11.370Z,100.00
2018-08-16T04:37:43.281Z,100.00
2018-08-16T04:40:15.303Z,99.71
2018-08-16T04:42:47.391Z,98.10
2018-08-16T04:45:23.399Z,96.79
2018-08-16T04:47:55.402Z,95.92
2018-08-16T04:50:27.415Z,95.51
2018-08-16T04:53:05.799Z,94.84
2018-08-16T04:55:37.814Z,94.12
2018-08-16T04:58:09.814Z,93.50
2018-08-16T05:00:41.847Z,93.10
2018-08-16T05:03:13.896Z,92.82
2018-08-16T05:05:45.890Z,92.50
2018-08-16T05:08:17.869Z,91.78
2018-08-16T05:10:49.864Z,91.91
2018-08-16T05:13:21.859Z,91.22
2018-08-16T05:15:53.856Z,91.01
2018-08-16T05:18:25.834Z,90.53
2018-08-16T05:20:57.846Z,90.49
2018-08-16T05:23:29.843Z,89.24
2018-08-16T05:26:01.823Z,88.00
2018-08-16T05:28:33.843Z,84.07
2018-08-16T05:31:05.843Z,78.13
2018-08-16T05:33:37.813Z,74.02
2018-08-16T05:36:09.809Z,70.29
2018-08-16T05:38:41.828Z,70.28
2018-08-16T05:41:13.831Z,66.85
2018-08-16T05:43:45.835Z,65.72
2018-08-16T05:46:17.868Z,63.02
2018-08-16T05:48:49.905Z,60.11
2018-08-16T05:51:21.888Z,60.19
2018-08-16T05:53:53.871Z,56.46
2018-08-16T05:56:25.893Z,54.61
2018-08-16T05:58:57.962Z,53.33
2018-08-16T06:01:30.022Z,51.14
2018-08-16T06:04:02.097Z,50.83
2018-08-16T06:06:34.130Z,51.16
2018-08-16T06:09:07.694Z,49.78
2018-08-16T06:11:39.733Z,48.07
2018-08-16T06:14:11.847Z,46.77
2018-08-16T06:16:43.967Z,44.93
2018-08-16T06:19:16.077Z,43.24
2018-08-16T06:21:48.169Z,42.25
2018-08-16T06:24:20.256Z,42.23
2018-08-16T06:26:52.311Z,42.89
2018-08-16T06:29:24.330Z,40.00
2018-08-16T06:31:56.342Z,40.19
2018-08-16T06:34:28.408Z,41.95
2018-08-16T06:37:00.434Z,42.67
2018-08-16T06:39:32.488Z,40.28
2018-08-16T06:42:04.757Z,39.75
2018-08-16T06:44:36.786Z,40.11
2018-08-16T06:47:13.102Z,42.10
2018-08-16T06:49:46.363Z,42.73
2018-08-16T06:52:18.398Z,43.94
2018-08-16T06:54:50.523Z,42.81
2018-08-16T06:57:22.541Z,41.62
2018-08-16T06:59:54.571Z,40.31
2018-08-16T07:02:26.985Z,41.88
2018-08-16T07:04:59.106Z,42.06
2018-08-16T07:07:31.139Z,40.44
2018-08-16T07:10:04.306Z,39.26
2018-08-16T07:12:36.448Z,39.29
2018-08-16T07:15:12.134Z,38.36
2018-08-16T07:17:44.624Z,38.33
2018-08-16T07:20:16.686Z,37.66
2018-08-16T07:22:48.719Z,38.35
2018-08-16T07:25:20.764Z,37.64
2018-08-16T07:27:52.802Z,37.05
2018-08-16T07:30:24.847Z,37.83
2018-08-16T07:32:56.871Z,38.75
2018-08-16T07:35:28.993Z,37.97
2018-08-16T07:38:01.043Z,37.57
2018-08-16T07:40:33.083Z,38.79
2018-08-16T07:43:05.110Z,37.94
2018-08-16T07:45:37.216Z,37.73
2018-08-16T07:48:09.327Z,37.96
2018-08-16T07:50:41.349Z,36.50
2018-08-16T07:53:13.372Z,36.73
2018-08-16T07:55:45.453Z,36.97
2018-08-16T07:58:17.523Z,37.43
2018-08-16T08:00:49.563Z,36.38
2018-08-16T08:03:21.576Z,36.76
2018-08-16T08:05:53.583Z,37.31
2018-08-16T08:08:25.635Z,36.85
2018-08-16T08:10:57.650Z,36.25
2018-08-16T08:13:29.707Z,37.88
2018-08-16T08:16:01.731Z,36.30
2018-08-16T08:18:33.763Z,36.36
2018-08-16T08:21:05.780Z,37.17
2018-08-16T08:23:37.857Z,36.63
2018-08-16T08:26:09.843Z,35.01
2018-08-16T08:28:41.866Z,36.39
2018-08-16T08:31:13.870Z,37.96
2018-08-16T08:33:45.932Z,37.16
2018-08-16T08:36:30.287Z,39.11
2018-08-16T08:39:02.568Z,39.12
2018-08-16T08:41:34.506Z,37.06
2018-08-16T08:44:18.592Z,38.98
2018-08-16T08:46:51.452Z,36.77
2018-08-16T08:49:23.520Z,36.26
2018-08-16T08:51:55.559Z,39.42
2018-08-16T08:54:55.123Z,39.72
2018-08-16T08:57:38.778Z,36.44
2018-08-16T09:00:10.803Z,36.75
2018-08-16T09:02:42.933Z,36.80
2018-08-16T09:05:15.014Z,36.95
2018-08-16T09:07:47.075Z,40.00
2018-08-16T09:11:26.875Z,36.67
2018-08-16T09:14:10.392Z,37.49
2018-08-16T09:16:42.395Z,38.74
2018-08-16T09:19:14.436Z,37.18
2018-08-16T09:21:46.454Z,36.84
2018-08-16T09:24:18.471Z,37.40
2018-08-16T09:26:50.467Z,37.07
2018-08-16T09:30:38.458Z,37.12
2018-08-16T09:33:21.943Z,35.99
2018-08-16T09:35:53.928Z,35.77
2018-08-16T09:38:25.932Z,34.77
2018-08-16T09:40:57.949Z,36.56
2018-08-16T09:43:30.024Z,36.49
2018-08-16T09:47:13.076Z,34.03
2018-08-16T09:49:47.309Z,34.06
2018-08-16T09:52:20.211Z,36.54
2018-08-16T09:54:52.445Z,33.70
2018-08-16T09:57:24.515Z,33.74
2018-08-16T09:59:56.566Z,34.45
2018-08-16T10:02:28.603Z,34.43
2018-08-16T10:05:00.655Z,33.92
2018-08-16T10:07:32.730Z,34.53
2018-08-16T10:10:04.747Z,33.10
2018-08-16T10:12:36.759Z,34.21
2018-08-16T10:15:08.768Z,33.29
2018-08-16T10:17:40.787Z,32.31
2018-08-16T10:20:12.848Z,31.13
2018-08-16T10:22:44.875Z,33.01
2018-08-16T10:25:16.903Z,34.57
2018-08-16T10:27:48.901Z,32.28
2018-08-16T10:33:07.954Z,33.76
2018-08-16T10:35:39.936Z,33.67
2018-08-16T10:38:11.927Z,31.39
2018-08-16T10:40:43.933Z,31.56
2018-08-16T10:43:15.915Z,31.27
2018-08-16T10:45:48.191Z,30.72
2018-08-16T10:48:20.175Z,28.36
2018-08-16T10:50:52.234Z,29.04
2018-08-16T10:53:24.344Z,28.82
2018-08-16T10:55:56.660Z,29.07
2018-08-16T10:58:29.111Z,29.27
2018-08-16T11:01:03.259Z,31.37
2018-08-16T11:03:35.264Z,28.58
2018-08-16T11:06:07.287Z,29.92
2018-08-16T11:08:39.291Z,29.80
2018-08-16T11:11:11.318Z,28.13
2018-08-16T11:13:43.303Z,28.90
2018-08-16T11:16:15.357Z,28.21
2018-08-16T11:18:47.430Z,29.32
2018-08-16T11:21:19.524Z,28.73
2018-08-16T11:23:51.502Z,31.81
2018-08-16T11:26:23.495Z,29.96
2018-08-16T11:28:55.502Z,29.03
2018-08-16T11:31:27.502Z,31.52
2018-08-16T11:33:59.514Z,29.71
2018-08-16T11:36:31.539Z,29.54
2018-08-16T11:39:05.406Z,29.40
2018-08-16T11:41:37.457Z,30.34
2018-08-16T11:44:09.432Z,29.94
2018-08-16T11:46:41.590Z,30.17
2018-08-16T11:49:13.543Z,29.47
2018-08-16T11:51:45.667Z,28.05
2018-08-16T11:54:17.900Z,27.06
2018-08-16T11:56:49.967Z,28.04
2018-08-16T11:59:22.042Z,28.38
2018-08-16T12:01:54.106Z,27.95
2018-08-16T12:04:26.129Z,27.64
2018-08-16T12:06:58.251Z,27.82
2018-08-16T12:09:30.252Z,26.97
2018-08-16T12:12:02.375Z,27.44
2018-08-16T12:14:34.409Z,29.41
2018-08-16T12:17:06.470Z,28.88
2018-08-16T12:19:38.478Z,28.91
2018-08-16T12:22:10.479Z,27.80
2018-08-16T12:24:42.471Z,28.44
2018-08-16T12:27:14.561Z,28.83
2018-08-16T12:29:46.556Z,29.22
2018-08-16T12:32:18.535Z,26.11
2018-08-16T12:34:50.547Z,28.56
2018-08-16T12:37:22.546Z,27.75
2018-08-16T12:39:54.511Z,27.63
2018-08-16T12:42:26.538Z,26.73
2018-08-16T12:44:58.567Z,26.61
2018-08-16T12:47:30.548Z,27.08
2018-08-16T12:50:02.597Z,26.06
2018-08-16T12:52:34.603Z,25.41
2018-08-16T12:55:06.590Z,23.52
2018-08-16T12:57:38.584Z,25.05
2018-08-16T13:00:14.495Z,24.57
2018-08-16T13:02:47.484Z,25.87
2018-08-16T13:05:19.492Z,25.92
2018-08-16T13:07:51.503Z,23.77
2018-08-16T13:10:23.489Z,23.24
2018-08-16T13:12:55.446Z,24.37
2018-08-16T13:15:27.455Z,23.17
2018-08-16T13:17:59.499Z,23.98
2018-08-16T13:20:31.531Z,25.04
2018-08-16T13:23:03.555Z,23.89
2018-08-16T13:25:35.543Z,23.63
2018-08-16T13:28:07.557Z,25.00
2018-08-16T13:30:39.554Z,24.87
2018-08-16T13:33:11.587Z,24.28
2018-08-16T13:35:43.656Z,22.04
2018-08-16T13:38:15.644Z,22.06
2018-08-16T13:40:47.687Z,23.51
2018-08-16T13:43:19.675Z,23.75
2018-08-16T13:45:51.691Z,22.63
2018-08-16T13:48:23.693Z,23.20
2018-08-16T13:50:55.666Z,23.44
2018-08-16T13:53:27.660Z,22.65
2018-08-16T13:55:59.794Z,24.12
2018-08-16T13:58:31.854Z,23.24
2018-08-16T14:01:03.866Z,23.15
2018-08-16T14:03:35.839Z,20.82
2018-08-16T14:06:07.866Z,22.72
2018-08-16T14:08:39.907Z,21.73
2018-08-16T14:11:11.992Z,22.52
2018-08-16T14:13:44.010Z,24.76
2018-08-16T14:16:15.995Z,23.07
2018-08-16T14:18:48.049Z,21.38
2018-08-16T14:21:20.038Z,23.45
2018-08-16T14:23:52.075Z,23.52
2018-08-16T14:26:24.171Z,23.20
2018-08-16T14:28:56.203Z,23.40
2018-08-16T14:31:28.179Z,23.73
2018-08-16T14:34:00.268Z,22.64
2018-08-16T14:36:32.263Z,20.10
2018-08-16T14:39:06.965Z,23.80
2018-08-16T14:41:39.003Z,25.01
2018-08-16T14:44:11.021Z,23.78
2018-08-16T14:46:43.036Z,23.65
2018-08-16T14:49:15.807Z,23.61
2018-08-16T14:51:47.788Z,22.75
2018-08-16T14:54:19.766Z,24.10
2018-08-16T14:56:51.776Z,24.55
2018-08-16T14:59:23.800Z,24.70
2018-08-16T15:01:55.831Z,21.72
2018-08-16T15:04:27.830Z,21.96
2018-08-16T15:06:59.882Z,22.08
2018-08-16T15:16:39.907Z,23.08
2018-08-16T15:19:11.949Z,23.87
2018-08-16T15:21:43.956Z,22.16
2018-08-16T15:24:17.716Z,22.94
2018-08-16T15:26:50.019Z,21.94
2018-08-16T15:29:22.015Z,24.08
2018-08-16T15:31:54.074Z,25.09
2018-08-16T15:34:26.064Z,24.04
2018-08-16T15:36:58.106Z,22.37
2018-08-16T15:39:30.116Z,22.59
2018-08-16T15:42:02.120Z,22.87
2018-08-16T15:44:34.094Z,23.70
2018-08-16T15:47:06.069Z,22.54
2018-08-16T15:49:38.122Z,23.05
2018-08-16T15:52:10.098Z,24.90
2018-08-16T15:54:42.132Z,24.83
2018-08-16T15:57:14.234Z,24.52
2018-08-16T15:59:46.232Z,24.39
2018-08-16T16:02:18.179Z,22.55
2018-08-16T16:04:50.190Z,24.14
2018-08-16T16:07:22.195Z,24.75
2018-08-16T16:09:54.168Z,24.90
2018-08-16T16:12:26.148Z,25.34
2018-08-16T16:14:58.582Z,26.77
2018-08-16T16:17:30.598Z,26.51
2018-08-16T16:20:02.683Z,27.40
2018-08-16T16:22:35.071Z,27.62
2018-08-16T16:25:07.690Z,28.60
2018-08-16T16:27:39.770Z,29.71
2018-08-16T16:30:11.796Z,30.87
2018-08-16T16:32:43.813Z,30.61
2018-08-16T16:35:15.808Z,29.54
2018-08-16T16:37:47.788Z,30.65
2018-08-16T16:40:19.842Z,31.37
2018-08-16T16:42:51.927Z,31.06
2018-08-16T16:45:23.912Z,31.35
2018-08-16T16:47:55.897Z,32.02
2018-08-16T16:50:27.922Z,32.66
2018-08-16T16:53:00.107Z,31.62
2018-08-16T16:55:32.084Z,32.27
2018-08-16T16:58:04.614Z,31.96
2018-08-16T17:00:36.640Z,32.87
2018-08-16T17:03:08.700Z,33.14
2018-08-16T17:05:40.713Z,34.02
2018-08-16T17:08:12.815Z,33.67
2018-08-16T17:10:44.883Z,33.40
2018-08-16T17:13:16.874Z,34.36
2018-08-16T17:15:48.886Z,34.63
2018-08-16T17:18:20.898Z,35.33
2018-08-16T17:20:53.095Z,35.13
2018-08-16T17:23:25.127Z,34.78
2018-08-16T17:25:57.251Z,35.82
2018-08-16T17:28:29.309Z,34.83
2018-08-16T17:31:01.295Z,35.64
2018-08-16T17:33:33.317Z,35.96
2018-08-16T17:36:05.338Z,36.10
2018-08-16T17:38:37.356Z,37.54
2018-08-16T17:41:09.451Z,36.49
2018-08-16T17:43:41.374Z,37.24
2018-08-16T17:46:13.387Z,37.64
2018-08-16T17:48:45.426Z,38.36
2018-08-16T17:51:17.464Z,38.62
2018-08-16T17:53:49.531Z,39.11
2018-08-16T17:56:21.551Z,39.82
2018-08-16T17:58:53.746Z,40.00
2018-08-16T18:01:25.813Z,40.29
2018-08-16T18:03:57.987Z,42.01
2018-08-16T18:06:30.028Z,40.69
2018-08-16T18:09:02.130Z,40.89
2018-08-16T18:11:34.253Z,41.80
2018-08-16T18:14:06.450Z,42.97
2018-08-16T18:16:38.478Z,42.86
2018-08-16T18:19:10.566Z,43.78
2018-08-16T18:21:42.629Z,43.80
2018-08-16T18:24:14.708Z,45.51
2018-08-16T18:26:46.824Z,43.96
2018-08-16T18:29:18.871Z,46.22
2018-08-16T18:31:51.033Z,45.89
2018-08-16T18:34:23.051Z,46.78
2018-08-16T18:36:55.217Z,46.36
2018-08-16T18:39:27.297Z,46.93
2018-08-16T18:41:59.517Z,47.40
2018-08-16T18:44:31.669Z,48.99
2018-08-16T18:47:03.684Z,48.95
2018-08-16T18:49:35.801Z,49.26
2018-08-16T18:52:07.890Z,49.06
2018-08-16T18:54:39.961Z,49.18
2018-08-16T18:57:12.054Z,49.50
2018-08-16T18:59:44.106Z,51.46
2018-08-16T19:02:16.177Z,50.62
2018-08-16T19:04:48.230Z,51.08
2018-08-16T19:07:20.306Z,51.40
2018-08-16T19:09:52.418Z,50.97
2018-08-16T19:12:24.574Z,51.94
2018-08-16T19:14:56.567Z,52.22
2018-08-16T19:17:28.571Z,53.09
2018-08-16T19:20:00.687Z,52.48
2018-08-16T19:22:32.811Z,52.43
2018-08-16T19:25:05.694Z,52.95
2018-08-16T19:27:37.883Z,54.25
2018-08-16T19:30:10.011Z,54.98
2018-08-16T19:32:42.020Z,54.92
2018-08-16T19:35:14.200Z,55.54
2018-08-16T19:37:46.285Z,55.49
2018-08-16T19:40:18.341Z,56.06
2018-08-16T19:42:50.442Z,55.62
2018-08-16T19:45:22.882Z,56.24
2018-08-16T19:47:54.933Z,57.04
2018-08-16T19:50:26.990Z,57.58
2018-08-16T19:52:59.163Z,59.23
2018-08-16T19:55:31.308Z,59.60
2018-08-16T19:58:03.397Z,59.61
2018-08-16T20:00:35.447Z,59.74
2018-08-16T20:03:07.688Z,59.61
2018-08-16T20:05:39.778Z,59.70
2018-08-16T20:08:11.820Z,59.33
2018-08-16T20:10:43.873Z,60.70
2018-08-16T20:13:15.932Z,61.44
2018-08-16T20:15:47.985Z,60.02
2018-08-16T20:18:21.263Z,60.29
2018-08-16T20:20:53.369Z,61.04
2018-08-16T20:23:25.560Z,61.51
2018-08-16T20:25:57.715Z,61.23
2018-08-16T20:28:29.882Z,62.11
2018-08-16T20:31:01.974Z,62.73
2018-08-16T20:33:34.002Z,62.47
2018-08-16T20:36:06.025Z,63.70
2018-08-16T20:38:38.130Z,64.58
2018-08-16T20:41:10.222Z,64.46
2018-08-16T20:43:42.269Z,64.54
2018-08-16T20:46:14.380Z,65.56
2018-08-16T20:48:46.395Z,66.07
2018-08-16T20:51:18.371Z,65.97
2018-08-16T20:53:50.517Z,67.26
2018-08-16T20:56:22.519Z,67.40
2018-08-16T20:58:54.551Z,68.35
2018-08-16T21:01:26.546Z,67.65
2018-08-16T21:03:58.515Z,67.56
2018-08-16T21:06:30.513Z,68.45
2018-08-16T21:09:03.923Z,69.26
2018-08-16T21:11:35.907Z,69.94
2018-08-16T21:14:07.994Z,70.17
2018-08-16T21:16:39.971Z,71.01
2018-08-16T21:19:11.982Z,71.67
2018-08-16T21:21:44.027Z,72.27
2018-08-16T21:24:15.991Z,71.55
2018-08-16T21:26:47.955Z,72.93
2018-08-16T21:29:19.943Z,73.63
2018-08-16T21:31:51.934Z,74.36
2018-08-16T21:34:24.036Z,74.50
2018-08-16T21:36:55.971Z,73.94
2018-08-16T21:39:27.958Z,73.77
2018-08-16T21:41:59.933Z,74.71
2018-08-16T21:44:31.898Z,74.61
2018-08-16T21:47:03.881Z,74.46
2018-08-16T21:49:35.877Z,73.70
2018-08-16T21:52:08.305Z,73.83
2018-08-16T21:54:40.276Z,73.62
2018-08-16T21:57:12.253Z,74.40
2018-08-16T21:59:44.232Z,74.56
2018-08-16T22:02:16.219Z,75.21
2018-08-16T22:04:48.188Z,76.49
2018-08-16T22:07:29.959Z,77.54
2018-08-16T22:10:01.939Z,77.45
2018-08-16T22:12:33.945Z,77.12
2018-08-16T22:15:05.908Z,76.39
2018-08-16T22:17:37.898Z,76.70
2018-08-16T22:20:09.914Z,77.28
2018-08-16T22:22:41.940Z,78.31
2018-08-16T22:25:13.974Z,79.20
2018-08-16T22:27:46.032Z,79.80
2018-08-16T22:30:18.046Z,80.81
2018-08-16T22:32:50.060Z,80.14
2018-08-16T22:35:22.031Z,79.93
2018-08-16T22:37:54.033Z,80.96
2018-08-16T22:40:26.028Z,80.76
2018-08-16T22:42:58.035Z,80.38
2018-08-16T22:45:30.025Z,80.89
2018-08-16T22:48:02.040Z,80.67
2018-08-16T22:50:34.113Z,80.56
2018-08-16T22:53:06.147Z,81.62
2018-08-16T22:55:38.142Z,82.25
2018-08-16T22:58:10.160Z,82.75
2018-08-16T23:00:42.177Z,82.94
2018-08-16T23:03:14.310Z,82.39
2018-08-16T23:05:46.309Z,82.92
2018-08-16T23:08:18.312Z,83.49
2018-08-16T23:10:50.313Z,83.68
2018-08-16T23:13:22.330Z,84.88
2018-08-16T23:15:54.306Z,85.46
2018-08-16T23:18:26.327Z,86.17
2018-08-16T23:20:58.314Z,85.82
2018-08-16T23:23:30.307Z,87.53
2018-08-16T23:26:02.274Z,87.66
2018-08-16T23:28:34.269Z,87.33
2018-08-16T23:31:06.234Z,88.79
2018-08-16T23:33:38.212Z,88.99
2018-08-16T23:36:10.170Z,89.24
2018-08-16T23:38:42.168Z,89.01
2018-08-16T23:41:14.119Z,89.18
2018-08-16T23:43:46.120Z,88.97
2018-08-16T23:46:18.126Z,89.08
2018-08-16T23:48:50.095Z,88.83
2018-08-16T23:51:22.155Z,89.87
2018-08-16T23:53:54.134Z,90.35
2018-08-16T23:56:26.120Z,89.32
2018-08-16T23:58:58.143Z,90.46
